Time;durP1;ratioP1;P1;durP2;ratioP2;P2;SDS_P1;SDS_P2;PMS_P1;PMS_P2;Temp;Humidity;BMP_temperature;BMP_pressure;BME280_temperature;BME280_humidity;BME280_pressure;Samples;Min_cycle;Max_cycle;Signal;HPM_P1;HPM_P2
2022/07/20 00:02:14;;;;;;;7.28;2.10;;;;;;;17.29;60.33;100477.08;1721951;83;21189;-79
2022/07/20 00:05:19;;;;;;;9.13;2.27;;;;;;;17.31;60.68;100472.70;1720860;81;21239;-80
2022/07/20 00:11:52;;;;;;;9.48;2.17;;;;;;;17.34;60.06;100458.46;1721905;83;21216;-79
2022/07/20 00:14:58;;;;;;;11.53;2.72;;;;;;;17.35;59.53;100456.00;1730120;82;21789;-79
2022/07/20 00:18:04;;;;;;;6.85;2.30;;;;;;;17.36;59.27;100451.66;1721804;83;21785;-80
2022/07/20 00:21:09;;;;;;;7.15;2.30;;;;;;;17.40;59.79;100447.91;1720787;82;21749;-80
2022/07/20 00:24:16;;;;;;;7.85;2.37;;;;;;;17.44;60.88;100451.09;1721781;83;21177;-80
2022/07/20 00:27:22;;;;;;;6.75;2.17;;;;;;;17.46;61.31;100456.73;1720682;83;21205;-81
2022/07/20 00:30:28;;;;;;;8.48;2.40;;;;;;;17.48;61.75;100453.20;1721243;82;21205;-81
2022/07/20 00:33:33;;;;;;;6.80;2.47;;;;;;;17.48;62.44;100449.59;1720427;83;21193;-80
2022/07/20 00:36:38;;;;;;;9.65;2.10;;;;;;;17.48;60.86;100450.44;1720495;82;21808;-80
2022/07/20 00:39:44;;;;;;;5.35;2.40;;;;;;;17.48;60.07;100442.14;1721730;82;21200;-80
2022/07/20 00:42:51;;;;;;;6.87;2.30;;;;;;;17.48;60.10;100443.53;1720504;83;21173;-80
2022/07/20 00:45:58;;;;;;;6.50;2.27;;;;;;;17.47;60.16;100438.22;1721066;82;21192;-80
2022/07/20 00:49:03;;;;;;;6.53;2.87;;;;;;;17.48;60.29;100435.23;1721864;83;21161;-80
2022/07/20 00:52:09;;;;;;;7.20;2.42;;;;;;;17.49;61.14;100428.62;1721275;83;21200;-80
2022/07/20 00:55:16;;;;;;;4.80;2.00;;;;;;;17.51;61.18;100427.89;1721390;82;21212;-80
2022/07/20 00:58:21;;;;;;;5.50;2.52;;;;;;;17.52;61.71;100421.82;1721673;83;21381;-80
2022/07/20 01:01:26;;;;;;;6.80;2.62;;;;;;;17.52;61.73;100415.75;1720684;82;21192;-80
2022/07/20 01:04:31;;;;;;;10.82;2.30;;;;;;;17.54;62.03;100419.14;1721964;82;21162;-80
2022/07/20 01:07:30;;;;;;;4.92;2.58;;;;;;;17.56;61.60;100417.02;1721151;81;21200;-80
2022/07/20 01:10:37;;;;;;;6.12;2.62;;;;;;;17.58;61.04;100416.78;1721161;82;21200;-80
2022/07/20 01:13:37;;;;;;;9.83;2.72;;;;;;;17.58;60.58;100412.10;1720668;83;21177;-80
2022/07/20 01:16:44;;;;;;;6.78;2.62;;;;;;;17.59;60.51;100412.95;1720436;82;21212;-81
2022/07/20 01:19:44;;;;;;;4.92;2.62;;;;;;;17.61;60.62;100412.20;1721809;82;21295;-81
2022/07/20 01:22:54;;;;;;;10.65;2.70;;;;;;;17.61;60.59;100412.20;1738484;82;21229;-80
2022/07/20 01:25:59;;;;;;;11.28;3.02;;;;;;;17.63;60.90;100409.52;1738467;81;21197;-80
2022/07/20 01:29:05;;;;;;;7.67;2.80;;;;;;;17.65;61.34;100412.09;1738988;82;21186;-80
2022/07/20 01:32:11;;;;;;;12.28;2.52;;;;;;;17.67;61.40;100409.09;1738796;82;21182;-81
2022/07/20 01:35:17;;;;;;;4.78;2.65;;;;;;;17.67;61.34;100407.71;1736819;81;21774;-80
2022/07/20 01:38:22;;;;;;;6.75;2.62;;;;;;;17.65;62.12;100407.94;1720393;83;21205;-80
2022/07/20 01:41:27;;;;;;;5.70;3.00;;;;;;;17.63;62.55;100404.53;1719140;82;21777;-81
2022/07/20 01:44:29;;;;;;;10.25;3.02;;;;;;;17.61;62.84;100401.14;1720499;82;21729;-80
2022/07/20 01:47:35;;;;;;;8.45;2.72;;;;;;;17.61;62.76;100401.99;1720721;83;21173;-81
2022/07/20 01:50:42;;;;;;;4.90;2.72;;;;;;;17.59;62.74;100396.35;1720612;82;21192;-81
2022/07/20 01:53:47;;;;;;;8.83;3.02;;;;;;;17.57;62.86;100392.44;1721814;83;21153;-80
2022/07/20 01:56:53;;;;;;;11.63;3.00;;;;;;;17.54;63.24;100392.86;1721854;83;21154;-81
2022/07/20 01:59:59;;;;;;;15.35;2.95;;;;;;;17.51;63.36;100404.92;1721581;82;21742;-81
2022/07/20 02:03:06;;;;;;;7.22;3.05;;;;;;;17.46;63.71;100406.12;1721267;83;21757;-81
2022/07/20 02:06:12;;;;;;;7.15;2.75;;;;;;;17.40;63.94;100398.67;1720759;82;21180;-80
2022/07/20 02:09:18;;;;;;;8.73;2.95;;;;;;;17.34;64.21;100399.02;1723226;83;21145;-80
2022/07/20 02:12:24;;;;;;;13.48;3.33;;;;;;;17.24;64.27;100403.63;1723277;83;21181;-80
2022/07/20 02:19:00;;;;;;;11.45;3.10;;;;;;;17.11;64.35;100409.19;1722950;83;21272;-80
2022/07/20 02:22:06;;;;;;;8.95;2.60;;;;;;;17.03;64.70;100408.03;1723287;83;21157;-80
2022/07/20 02:25:11;;;;;;;7.70;2.77;;;;;;;16.95;64.91;100406.37;1722998;82;21196;-80
2022/07/20 02:28:18;;;;;;;6.80;2.65;;;;;;;16.90;65.26;100403.95;1722820;83;21212;-81
2022/07/20 02:31:24;;;;;;;5.67;3.00;;;;;;;16.84;65.71;100405.63;1722001;82;22268;-81
2022/07/20 02:34:31;;;;;;;20.80;4.15;;;;;;;16.83;65.99;100416.36;1723394;82;21702;-81
2022/07/20 02:37:38;;;;;;;11.53;3.17;;;;;;;16.85;65.78;100410.11;1723107;83;21212;-81
2022/07/20 02:40:45;;;;;;;5.78;2.87;;;;;;;17.02;66.22;100411.88;1722611;82;21240;-80
2022/07/20 02:43:49;;;;;;;7.55;2.65;;;;;;;17.40;65.67;100409.20;1723305;83;21224;-81
2022/07/20 02:46:55;;;;;;;13.72;3.52;;;;;;;17.83;64.26;100407.22;1723237;83;21165;-80
2022/07/20 02:50:02;;;;;;;11.35;3.00;;;;;;;18.07;63.08;100406.45;1723016;82;21251;-81
2022/07/20 02:53:01;;;;;;;10.85;3.10;;;;;;;18.17;62.78;100405.11;1723259;83;21203;-80
2022/07/20 02:56:07;;;;;;;15.30;3.42;;;;;;;18.28;62.66;100408.53;1722699;82;21495;-80
2022/07/20 02:59:13;;;;;;;9.95;3.02;;;;;;;18.57;62.54;100403.70;1722583;83;21209;-81
2022/07/20 03:02:18;;;;;;;9.68;2.60;;;;;;;18.99;61.76;100408.13;1723253;83;21161;-80
2022/07/20 03:05:24;;;;;;;8.95;2.40;;;;;;;19.50;60.63;100409.69;1721968;82;21192;-80
2022/07/20 03:08:30;;;;;;;9.28;3.22;;;;;;;20.07;59.34;100404.66;1718835;83;21752;-81
2022/07/20 03:11:36;;;;;;;8.63;2.80;;;;;;;20.63;58.12;100408.08;1692404;83;21747;-79
2022/07/20 03:14:43;;;;;;;6.10;2.72;;;;;;;21.16;55.37;100409.34;1710929;82;21242;-80
2022/07/20 03:17:55;;;;;;;8.43;2.77;;;;;;;21.49;53.94;100408.41;1690301;85;21723;-80
2022/07/20 03:21:01;;;;;;;6.67;2.87;;;;;;;21.54;53.00;100410.75;1711864;82;21196;-80
2022/07/20 03:24:07;;;;;;;12.60;2.90;;;;;;;21.46;53.84;100416.72;1711501;84;21200;-80
2022/07/20 03:27:13;;;;;;;12.33;3.15;;;;;;;21.52;54.25;100411.55;1691631;85;21250;-80
2022/07/20 03:30:19;;;;;;;10.50;2.40;;;;;;;21.80;53.62;100414.07;1710776;82;21176;-80
2022/07/20 03:33:24;;;;;;;10.30;2.27;;;;;;;22.13;51.95;100418.92;1711680;84;22094;-81
2022/07/20 03:36:33;;;;;;;7.70;2.30;;;;;;;22.45;51.13;100417.84;1690498;83;21206;-80
2022/07/20 03:39:38;;;;;;;5.97;2.70;;;;;;;22.64;49.66;100419.28;1711734;82;21161;-80
2022/07/20 03:42:46;;;;;;;6.50;2.70;;;;;;;22.70;49.46;100422.98;1711652;84;21160;-80
2022/07/20 03:45:53;;;;;;;7.08;2.40;;;;;;;22.65;51.26;100427.09;1690417;83;21210;-80
2022/07/20 03:48:59;;;;;;;12.03;2.17;;;;;;;22.48;52.04;100424.83;1711821;84;21165;-80
2022/07/20 03:52:05;;;;;;;5.47;2.50;;;;;;;22.25;52.77;100432.22;1711735;84;21823;-80
2022/07/20 03:55:13;;;;;;;7.12;2.65;;;;;;;22.04;52.99;100430.13;1690968;83;21261;-81
2022/07/20 03:58:18;;;;;;;5.65;3.08;;;;;;;21.88;54.38;100435.41;1711777;84;21156;-80
2022/07/20 04:01:23;;;;;;;8.65;4.17;;;;;;;21.77;53.97;100429.87;1710715;82;21761;-80
2022/07/20 04:04:30;;;;;;;11.57;4.40;;;;;;;21.69;54.00;100438.08;1690331;83;21210;-81
2022/07/20 04:07:36;;;;;;;16.30;5.17;;;;;;;21.62;53.01;100437.36;1711829;84;21211;-80
2022/07/20 04:10:44;;;;;;;20.75;4.83;;;;;;;21.54;52.54;100437.18;1719774;81;21209;-81
2022/07/20 04:13:50;;;;;;;11.97;4.60;;;;;;;21.46;52.46;100437.59;1718237;83;21176;-79
2022/07/20 04:16:56;;;;;;;8.75;3.58;;;;;;;21.41;52.61;100437.48;1718321;83;21233;-80
2022/07/20 04:20:04;;;;;;;9.95;3.70;;;;;;;21.34;53.14;100433.96;1718363;82;21859;-80
2022/07/20 04:23:14;;;;;;;11.57;3.70;;;;;;;21.26;53.32;100435.14;1720578;83;21177;-80
2022/07/20 04:26:20;;;;;;;10.07;3.20;;;;;;;21.17;53.52;100431.03;1720886;82;21200;-80
2022/07/20 04:29:26;;;;;;;6.75;2.80;;;;;;;21.14;53.66;100431.55;1721681;82;21192;-80
2022/07/20 04:32:26;;;;;;;15.83;2.83;;;;;;;21.27;53.69;100427.67;1722171;83;21746;-80
2022/07/20 04:35:31;;;;;;;11.85;2.70;;;;;;;21.48;53.57;100425.65;1721466;82;21944;-80
2022/07/20 04:38:36;;;;;;;11.33;3.00;;;;;;;21.74;52.88;100427.05;1722112;83;21157;-80
2022/07/20 04:41:42;;;;;;;8.35;3.42;;;;;;;21.97;52.11;100419.13;1721839;82;21761;-80
2022/07/20 04:44:43;;;;;;;11.00;3.30;;;;;;;22.17;51.34;100422.35;1721415;82;21216;-81
2022/07/20 04:47:49;;;;;;;5.90;2.90;;;;;;;22.43;50.42;100418.62;1739835;81;21212;-80
2022/07/20 04:50:55;;;;;;;15.88;3.62;;;;;;;22.67;50.09;100417.91;1695580;83;21268;-80
2022/07/20 04:54:01;;;;;;;18.52;4.35;;;;;;;22.82;49.56;100420.09;1739247;80;21727;-80
2022/07/20 04:57:07;;;;;;;24.43;6.83;;;;;;;22.99;49.18;100420.97;1737724;82;21794;-80
2022/07/20 05:00:13;;;;;;;22.85;7.00;;;;;;;23.16;48.83;100419.00;1738616;81;21205;-80
2022/07/20 05:03:20;;;;;;;30.23;7.70;;;;;;;23.27;48.03;100410.22;1739125;82;21790;-81
2022/07/20 05:06:27;;;;;;;41.65;10.72;;;;;;;23.38;47.88;100412.59;1737906;81;21230;-81
2022/07/20 05:09:32;;;;;;;36.00;10.38;;;;;;;23.49;47.01;100413.59;1722565;82;21177;-81
2022/07/20 05:12:38;;;;;;;30.40;9.40;;;;;;;23.57;46.18;100402.82;1720774;83;21165;-81
2022/07/20 05:15:45;;;;;;;39.78;10.35;;;;;;;23.67;46.25;100403.53;1721050;82;21177;-80
2022/07/20 05:18:52;;;;;;;29.45;9.03;;;;;;;23.84;45.15;100396.45;1722038;83;21157;-81
2022/07/20 05:22:00;;;;;;;31.17;11.70;;;;;;;23.99;44.85;100393.81;1721978;83;21280;-81
2022/07/20 05:25:06;;;;;;;30.55;13.08;;;;;;;24.10;43.90;100401.77;1720505;82;21212;-80
2022/07/20 05:28:13;;;;;;;31.33;14.05;;;;;;;24.19;43.19;100395.45;1720469;83;21232;-80
2022/07/20 05:31:19;;;;;;;21.90;9.48;;;;;;;24.31;43.46;100397.22;1721250;82;21188;-81
2022/07/20 05:34:25;;;;;;;18.85;6.90;;;;;;;24.42;42.65;100387.88;1744318;82;21191;-80
2022/07/20 05:37:30;;;;;;;9.58;4.75;;;;;;;24.58;42.67;100388.83;1751953;82;21163;-79
2022/07/20 05:40:36;;;;;;;8.43;4.17;;;;;;;24.73;41.86;100386.98;1731788;83;21532;-81
2022/07/20 05:43:41;;;;;;;8.05;3.77;;;;;;;24.85;41.38;100382.61;1732264;83;21177;-81
2022/07/20 05:46:49;;;;;;;6.65;3.80;;;;;;;24.97;41.80;100381.00;1731471;83;21181;-81
2022/07/20 05:49:56;;;;;;;14.85;4.70;;;;;;;25.08;41.25;100381.92;1732196;83;21172;-81
2022/07/20 05:53:02;;;;;;;5.00;2.15;;;;;;;25.20;40.18;100373.61;1730194;80;21176;-81
2022/07/20 05:56:01;;;;;;;5.15;2.35;;;;;;;25.30;39.11;100371.98;1719219;82;21236;-81
2022/07/20 05:58:54;;;;;;;3.87;2.25;;;;;;;25.38;38.47;100365.31;1719852;83;21153;-81
2022/07/20 06:02:00;;;;;;;5.67;2.30;;;;;;;25.40;38.53;100366.42;1719760;83;21216;-78
2022/07/20 06:05:06;;;;;;;4.85;1.90;;;;;;;25.45;38.20;100367.84;1721318;81;21208;-81
2022/07/20 06:08:12;;;;;;;4.65;1.32;;;;;;;25.49;37.81;100359.19;1730542;81;21252;-81
2022/07/20 06:11:18;;;;;;;5.83;1.77;;;;;;;25.57;37.82;100360.06;1729532;81;21239;-79
2022/07/20 06:14:23;;;;;;;5.47;1.45;;;;;;;25.63;37.74;100357.56;1739818;81;21186;-81
2022/07/20 06:17:29;;;;;;;8.40;2.12;;;;;;;25.77;37.66;100359.88;1719324;82;21211;-82
2022/07/20 06:20:36;;;;;;;5.50;1.60;;;;;;;25.84;38.10;100357.67;1748313;82;21191;-80
2022/07/20 06:23:41;;;;;;;7.50;1.52;;;;;;;25.82;38.08;100350.92;1741345;82;21135;-80
2022/07/20 06:26:47;;;;;;;4.75;2.02;;;;;;;25.86;38.12;100348.42;1718420;82;21263;-81
2022/07/20 06:29:53;;;;;;;10.58;2.72;;;;;;;25.91;38.68;100345.06;1745767;80;21188;-81
2022/07/20 06:32:59;;;;;;;5.70;1.95;;;;;;;26.00;38.46;100342.00;1716902;82;21267;-80
2022/07/20 06:36:06;;;;;;;4.85;1.90;;;;;;;26.07;37.97;100347.34;1720101;82;21765;-80
2022/07/20 06:39:12;;;;;;;4.65;2.10;;;;;;;26.14;38.31;100340.89;1742407;82;21445;-80
2022/07/20 06:42:18;;;;;;;8.63;2.67;;;;;;;26.28;38.21;100337.55;1714724;82;21252;-78
2022/07/20 06:45:25;;;;;;;6.05;2.25;;;;;;;26.37;38.14;100335.87;1707344;83;21243;-80
2022/07/20 06:48:30;;;;;;;5.00;2.47;;;;;;;26.37;38.60;100333.90;1739188;80;21231;-80
2022/07/20 06:51:36;;;;;;;5.45;2.22;;;;;;;26.34;38.34;100333.05;1708439;84;21217;-82
2022/07/20 06:54:41;;;;;;;5.10;2.42;;;;;;;26.38;38.40;100333.34;1703972;82;21181;-79
2022/07/20 06:57:48;;;;;;;5.03;2.67;;;;;;;26.46;38.68;100331.41;1706339;83;21699;-81
2022/07/20 07:00:57;;;;;;;5.15;2.00;;;;;;;26.53;37.73;100331.95;1703578;82;21169;-81
2022/07/20 07:04:02;;;;;;;;;;;;;;;26.46;37.97;100328.61;1725458;81;21156;-81
2022/07/20 07:07:08;;;;;;;6.70;2.50;;;;;;;26.43;37.81;100330.00;1719805;81;20218;-80
2022/07/20 07:10:14;;;;;;;7.35;2.37;;;;;;;26.50;37.88;100317.95;1740486;82;21192;-81
2022/07/20 07:13:19;;;;;;;8.08;3.00;;;;;;;26.59;37.82;100319.63;1730456;82;21248;-81
2022/07/20 07:16:25;;;;;;;9.70;2.37;;;;;;;26.62;38.13;100320.44;1723141;81;21641;-81
2022/07/20 07:19:31;;;;;;;10.15;2.58;;;;;;;26.52;38.17;100316.25;1724140;81;21168;-81
2022/07/20 07:22:37;;;;;;;7.42;2.70;;;;;;;26.33;38.24;100315.11;1727399;82;21787;-82
2022/07/20 07:25:42;;;;;;;6.03;2.72;;;;;;;26.27;38.41;100317.65;1721769;81;21587;-81
2022/07/20 07:28:49;;;;;;;10.68;2.50;;;;;;;26.30;38.87;100304.45;1727247;82;21173;-80
2022/07/20 07:31:58;;;;;;;3.80;1.77;;;;;;;26.35;38.53;100305.84;1724186;82;21743;-79
2022/07/20 07:35:04;;;;;;;10.08;1.85;;;;;;;26.28;39.09;100299.70;1730240;81;21267;-82
2022/07/20 07:38:10;;;;;;;5.00;1.80;;;;;;;26.11;38.81;100295.76;1724365;82;21181;-80
2022/07/20 07:41:16;;;;;;;3.33;1.70;;;;;;;26.14;40.07;100294.64;1721309;81;21243;-81
2022/07/20 07:44:21;;;;;;;7.00;1.70;;;;;;;26.37;39.47;100292.41;1726410;82;21164;-82
2022/07/20 07:47:27;;;;;;;5.33;1.40;;;;;;;26.55;39.18;100291.86;1732841;82;21179;-80
2022/07/20 07:50:34;;;;;;;6.97;1.77;;;;;;;26.66;38.66;100287.90;1727791;82;21198;-82
2022/07/20 07:53:40;;;;;;;4.83;1.20;;;;;;;26.89;39.01;100278.59;1730079;82;21192;-81
2022/07/20 07:56:46;;;;;;;3.20;1.60;;;;;;;27.20;39.43;100284.41;1725126;81;21163;-80
2022/07/20 07:59:52;;;;;;;6.03;1.40;;;;;;;27.47;38.16;100276.12;1731573;81;21709;-80
2022/07/20 08:03:07;;;;;;;5.50;1.30;;;;;;;27.64;37.34;100281.37;1728798;82;21137;-80
2022/07/20 08:06:14;;;;;;;6.05;1.35;;;;;;;27.74;37.27;100275.14;1727204;81;21180;-82
2022/07/20 08:09:20;;;;;;;10.55;1.80;;;;;;;27.95;37.47;100279.23;1724279;82;21171;-82
2022/07/20 08:12:25;;;;;;;5.92;1.65;;;;;;;28.00;36.13;100272.16;1725079;82;21203;-81
2022/07/20 08:15:31;;;;;;;4.00;1.32;;;;;;;27.33;37.51;100263.27;1739646;80;21224;-81
2022/07/20 08:18:37;;;;;;;3.60;1.50;;;;;;;27.33;37.51;100263.27;1714750;81;21210;-81
2022/07/20 08:21:37;;;;;;;4.12;1.60;;;;;;;27.07;37.63;100265.34;1727631;82;21214;-81
2022/07/20 08:24:43;;;;;;;3.02;1.40;;;;;;;26.89;37.89;100260.35;1723291;82;21214;-81
2022/07/20 08:27:50;;;;;;;4.72;1.60;;;;;;;26.91;38.46;100257.55;1725034;80;21167;-80
2022/07/20 08:30:57;;;;;;;3.85;1.50;;;;;;;26.99;38.45;100258.91;1729018;82;21270;-81
2022/07/20 08:34:02;;;;;;;3.10;1.25;;;;;;;26.85;38.26;100250.82;1727542;82;21183;-81
2022/07/20 08:37:08;;;;;;;2.90;1.20;;;;;;;26.69;38.46;100243.86;1730133;82;21167;-81
2022/07/20 08:40:14;;;;;;;3.75;1.35;;;;;;;26.79;38.90;100235.14;1729315;82;21826;-81
2022/07/20 08:43:20;;;;;;;5.53;1.70;;;;;;;26.92;37.88;100223.31;1720593;82;21187;-81
2022/07/20 08:46:19;;;;;;;3.10;1.37;;;;;;;27.00;37.94;100216.52;1729836;82;21788;-81
2022/07/20 08:49:25;;;;;;;7.15;1.30;;;;;;;27.00;37.93;100215.67;1729166;82;21242;-81
2022/07/20 08:52:31;;;;;;;6.22;1.22;;;;;;;26.86;38.14;100193.00;1726943;82;21231;-81
2022/07/20 08:55:37;;;;;;;2.08;1.15;;;;;;;26.70;38.58;100211.88;1723905;82;21544;-81
2022/07/20 08:58:43;;;;;;;4.30;1.30;;;;;;;26.68;39.21;100204.31;1731408;82;21167;-81
2022/07/20 09:02:13;;;;;;;7.17;2.00;;;;;;;26.88;38.62;100192.73;1731472;82;21131;-81
2022/07/20 09:05:20;;;;;;;3.67;1.35;;;;;;;27.14;38.56;100194.30;1719091;82;21226;-80
2022/07/20 09:08:27;;;;;;;2.77;1.00;;;;;;;27.18;37.89;100184.75;1719268;82;21183;-81
2022/07/20 09:11:33;;;;;;;6.70;1.02;;;;;;;27.22;37.34;100185.28;1724374;82;21219;-81
2022/07/20 09:14:52;;;;;;;5.05;1.22;;;;;;;27.20;37.56;100180.53;1725208;81;21808;-81
2022/07/20 09:18:10;;;;;;;3.50;1.43;;;;;;;27.14;38.09;100178.86;1727077;80;21761;-80
2022/07/20 09:21:16;;;;;;;3.00;1.50;;;;;;;27.05;38.91;100176.35;1729258;81;21188;-80
2022/07/20 09:24:28;;;;;;;5.03;1.15;;;;;;;27.18;38.86;100163.69;1722433;83;21656;-80
2022/07/20 09:27:36;;;;;;;1.92;1.15;;;;;;;27.49;38.56;100161.53;1719708;83;21235;-81
2022/07/20 09:30:42;;;;;;;2.20;1.30;;;;;;;27.70;37.36;100151.78;1708383;82;21245;-81
2022/07/20 09:33:49;;;;;;;4.10;1.20;;;;;;;27.87;37.25;100154.78;1723404;81;21244;-80
2022/07/20 09:36:56;;;;;;;2.75;1.05;;;;;;;28.01;35.90;100155.20;1726760;83;21172;-80
2022/07/20 09:40:11;;;;;;;2.37;1.45;;;;;;;28.06;36.29;100147.29;1728857;83;21227;-80
2022/07/20 09:43:15;;;;;;;2.33;1.32;;;;;;;28.04;37.23;100142.52;1719574;81;21523;-80
2022/07/20 09:46:26;;;;;;;4.67;1.27;;;;;;;27.74;37.52;100140.84;1747650;80;21620;-80
2022/07/20 09:49:41;;;;;;;5.03;1.27;;;;;;;27.54;37.89;100130.59;1711465;82;21223;-80
2022/07/20 09:52:47;;;;;;;3.80;1.50;;;;;;;27.63;38.19;100133.61;1745114;80;21195;-80
2022/07/20 09:55:48;;;;;;;1.57;1.20;;;;;;;27.72;37.50;100122.88;1719267;82;21239;-80
2022/07/20 09:58:59;;;;;;;5.87;1.45;;;;;;;27.66;37.75;100121.77;1718115;82;21290;-78
2022/07/20 10:02:04;;;;;;;3.95;1.30;;;;;;;27.57;37.26;100113.70;1719286;82;21509;-81
2022/07/20 10:05:11;;;;;;;7.30;1.70;;;;;;;27.64;37.28;100102.41;1721002;82;21236;-81
2022/07/20 10:08:16;;;;;;;4.92;1.22;;;;;;;27.75;37.33;100102.60;1717235;82;21559;-81
2022/07/20 10:11:22;;;;;;;2.33;1.10;;;;;;;27.83;36.78;100090.47;1716433;83;21202;-81
2022/07/20 10:14:28;;;;;;;2.90;1.42;;;;;;;27.83;37.15;100095.52;1712407;83;21129;-80
2022/07/20 10:17:38;;;;;;;6.22;1.27;;;;;;;27.72;36.40;100087.76;1719618;83;21792;-81
2022/07/20 10:20:45;;;;;;;2.10;1.07;;;;;;;27.68;37.50;100090.85;1717912;82;21276;-81
2022/07/20 10:23:51;;;;;;;3.02;1.15;;;;;;;27.79;36.47;100079.55;1709955;83;21176;-81
2022/07/20 10:26:50;;;;;;;4.27;1.30;;;;;;;27.84;36.33;100076.67;1713024;83;21188;-80
2022/07/20 10:29:57;;;;;;;1.65;1.10;;;;;;;27.95;36.75;100075.45;1708175;82;21220;-82
2022/07/20 10:33:05;;;;;;;2.45;1.17;;;;;;;28.19;37.58;100053.81;1710287;83;21214;-81
2022/07/20 10:39:50;;;;;;;2.80;1.00;;;;;;;28.73;36.52;100050.31;1722578;82;21722;-81
2022/07/20 10:43:02;;;;;;;3.52;1.47;;;;;;;28.86;35.45;100042.52;1713135;83;21137;-81
2022/07/20 10:46:07;;;;;;;2.45;1.30;;;;;;;28.73;34.54;100051.14;1718911;82;21232;-80
2022/07/20 10:49:12;;;;;;;4.70;1.37;;;;;;;28.41;35.19;100043.42;1712141;83;21169;-81
2022/07/20 10:52:41;;;;;;;1.90;1.15;;;;;;;28.18;35.95;100040.03;1720277;83;21216;-81
2022/07/20 10:55:58;;;;;;;2.00;1.40;;;;;;;28.09;35.85;100016.52;1714885;82;21200;-81
2022/07/20 10:59:06;;;;;;;2.35;1.40;;;;;;;27.99;35.96;100028.72;1720466;83;21184;-82
2022/07/20 11:02:13;;;;;;;3.27;1.20;;;;;;;27.85;36.15;100026.36;1724587;83;21216;-81
2022/07/20 11:05:27;;;;;;;2.52;1.40;;;;;;;27.67;36.70;100023.16;1703028;82;21241;-81
2022/07/20 11:08:31;;;;;;;7.40;1.20;;;;;;;27.45;37.05;100019.44;1712601;83;21166;-81
2022/07/20 11:11:41;;;;;;;2.05;1.10;;;;;;;27.34;37.00;100021.24;1722284;83;21213;-81
2022/07/20 11:15:00;;;;;;;5.40;1.37;;;;;;;27.21;37.13;100016.56;1723888;83;21227;-80
2022/07/20 11:18:05;;;;;;;2.58;1.40;;;;;;;27.12;37.40;100012.70;1711859;82;21236;-81
2022/07/20 11:21:16;;;;;;;4.47;1.30;;;;;;;27.10;37.60;100011.31;1708443;84;21837;-81
2022/07/20 11:24:32;;;;;;;5.35;1.40;;;;;;;27.19;37.68;100005.34;1713221;84;21165;-81
2022/07/20 11:27:37;;;;;;;3.37;1.20;;;;;;;27.31;37.62;99993.74;1713237;84;21209;-81
2022/07/20 11:30:44;;;;;;;4.50;1.20;;;;;;;27.38;37.02;99996.46;1713232;82;21248;-81
2022/07/20 11:33:50;;;;;;;2.22;1.17;;;;;;;27.42;36.96;99996.14;1710196;84;21185;-81
2022/07/20 11:36:59;;;;;;;4.53;1.12;;;;;;;27.41;37.02;99984.64;1705506;84;21276;-81
2022/07/20 11:40:05;;;;;;;3.33;1.47;;;;;;;27.34;36.96;99979.95;1703792;82;21189;-81
2022/07/20 11:43:19;;;;;;;16.60;1.40;;;;;;;27.22;37.08;99975.28;1707206;84;21745;-81
2022/07/20 11:46:33;;;;;;;2.10;1.20;;;;;;;27.15;36.72;99971.43;1713212;82;21572;-81
2022/07/20 11:49:39;;;;;;;3.40;1.20;;;;;;;27.14;37.69;99964.11;1707525;82;21794;-81
2022/07/20 11:52:50;;;;;;;12.98;1.37;;;;;;;27.11;37.17;99958.28;1705957;84;21185;-81
2022/07/20 11:55:55;;;;;;;4.90;1.37;;;;;;;27.08;37.29;99954.08;1686883;84;21189;-80
2022/07/20 11:59:03;;;;;;;2.80;1.22;;;;;;;27.16;37.03;99935.77;1709225;84;21165;-81
2022/07/20 12:02:09;;;;;;;2.55;1.17;;;;;;;27.24;37.55;99943.53;1708072;84;21240;-81
2022/07/20 12:05:16;;;;;;;4.75;1.80;;;;;;;27.42;37.55;99939.14;1701333;84;21189;-81
2022/07/20 12:08:24;;;;;;;4.67;1.10;;;;;;;27.50;37.65;99933.72;1709494;84;21169;-81
2022/07/20 12:11:30;;;;;;;8.20;1.50;;;;;;;27.51;37.38;99930.34;1712097;84;21212;-80
2022/07/20 12:14:48;;;;;;;2.15;1.45;;;;;;;27.42;37.50;99926.50;1703997;82;21221;-80
2022/07/20 12:17:57;;;;;;;3.43;1.37;;;;;;;27.26;37.69;99918.82;1713819;83;21749;-81
2022/07/20 12:21:07;;;;;;;4.28;1.45;;;;;;;27.06;37.68;99917.03;1722807;83;21157;-81
2022/07/20 12:24:15;;;;;;;2.83;1.45;;;;;;;26.90;38.15;99909.30;1724427;83;21212;-81
2022/07/20 12:27:20;;;;;;;2.42;1.20;;;;;;;26.86;38.14;99903.16;1720327;83;21196;-80
2022/07/20 12:30:34;;;;;;;1.87;0.80;;;;;;;26.97;38.14;99893.54;1712581;83;21279;-81
2022/07/20 12:33:27;;;;;;;5.12;1.40;;;;;;;27.17;38.14;99889.15;1694298;83;21248;-82
2022/07/20 12:36:13;;;;;;;2.62;1.30;;;;;;;27.38;36.63;99898.17;1691214;83;21207;-80
2022/07/20 12:39:06;;;;;;;3.70;1.10;;;;;;;27.53;36.57;99880.34;1696912;83;21255;-79
2022/07/20 12:42:12;;;;;;;3.05;1.15;;;;;;;27.71;35.44;99890.83;1726838;83;21171;-79
2022/07/20 12:45:18;;;;;;;1.67;1.17;;;;;;;27.86;35.54;99880.52;1734143;82;21176;-79
2022/07/20 12:48:24;;;;;;;4.00;1.25;;;;;;;28.06;34.32;99881.64;1734905;82;21152;-80
2022/07/20 12:51:31;;;;;;;3.00;1.17;;;;;;;28.14;34.65;99875.34;1733705;82;21769;-80
2022/07/20 12:54:36;;;;;;;1.50;0.98;;;;;;;28.15;34.60;99875.60;1733987;82;21231;-81
2022/07/20 12:57:44;;;;;;;3.62;1.10;;;;;;;28.17;35.04;99866.28;1728679;82;21173;-80
2022/07/20 13:00:49;;;;;;;1.60;1.20;;;;;;;28.17;35.23;99857.02;1711539;81;21183;-81
2022/07/20 13:03:56;;;;;;;3.83;1.10;;;;;;;28.17;35.19;99846.59;1732280;81;21436;-80
2022/07/20 13:07:02;;;;;;;3.25;1.30;;;;;;;28.14;35.23;99847.80;1735012;82;21176;-80
2022/07/20 13:10:09;;;;;;;2.60;1.37;;;;;;;28.09;35.46;99843.63;1728297;82;21725;-80
2022/07/20 13:13:15;;;;;;;4.05;1.10;;;;;;;28.06;35.57;99838.64;1704324;83;21771;-81
2022/07/20 13:16:22;;;;;;;6.28;1.15;;;;;;;28.06;35.48;99830.20;1729483;81;21207;-79
2022/07/20 13:19:29;;;;;;;2.30;1.15;;;;;;;28.03;35.42;99829.66;1731447;81;21193;-81
2022/07/20 13:22:37;;;;;;;6.92;1.20;;;;;;;27.94;35.78;99819.41;1715357;82;21203;-79
2022/07/20 13:25:44;;;;;;;2.77;1.20;;;;;;;27.94;36.41;99805.34;1727253;81;21204;-80
2022/07/20 13:28:50;;;;;;;3.55;1.42;;;;;;;28.01;35.46;99805.82;1733936;82;21170;-81
2022/07/20 13:31:57;;;;;;;3.60;1.12;;;;;;;28.02;35.26;99797.07;1735184;82;21181;-81
2022/07/20 13:35:03;;;;;;;2.87;1.22;;;;;;;28.08;35.06;99801.20;1735024;81;22059;-80
2022/07/20 13:38:10;;;;;;;3.00;1.02;;;;;;;28.11;34.80;99793.01;1733879;81;21177;-80
2022/07/20 13:41:16;;;;;;;2.47;1.40;;;;;;;28.09;34.65;99798.11;1732038;83;21200;-80
2022/07/20 13:44:22;;;;;;;4.55;1.20;;;;;;;27.98;34.87;99791.79;1730719;83;22151;-81
2022/07/20 13:47:28;;;;;;;3.90;1.20;;;;;;;27.83;35.36;99782.77;1731903;82;21252;-80
2022/07/20 13:50:35;;;;;;;9.88;1.25;;;;;;;27.81;35.80;99770.97;1729716;81;21263;-81
2022/07/20 13:53:36;;;;;;;10.10;1.17;;;;;;;27.85;35.05;99765.02;1729125;83;21251;-79
2022/07/20 13:56:42;;;;;;;1.77;1.20;;;;;;;27.96;35.29;99777.80;1728829;81;21832;-80
2022/07/20 13:59:48;;;;;;;2.65;1.30;;;;;;;28.11;35.22;99760.68;1729691;81;21235;-81
2022/07/20 14:02:56;;;;;;;5.87;1.55;;;;;;;28.11;35.22;99760.68;1711895;83;21593;-80
2022/07/20 14:06:03;;;;;;;2.05;1.00;;;;;;;28.23;34.95;99752.62;1701494;83;21231;-81
2022/07/20 14:09:09;;;;;;;3.37;1.32;;;;;;;28.38;34.57;99754.94;1701565;84;21180;-81
2022/07/20 14:12:17;;;;;;;2.72;1.20;;;;;;;28.42;34.25;99740.49;1700702;84;21689;-81
2022/07/20 14:15:24;;;;;;;4.83;1.20;;;;;;;28.41;34.45;99750.91;1701682;83;21787;-80
2022/07/20 14:18:24;;;;;;;2.62;1.12;;;;;;;28.31;34.32;99742.63;1702451;83;21171;-81
2022/07/20 14:21:29;;;;;;;2.08;1.42;;;;;;;28.21;34.34;99741.40;1700968;83;21145;-80
2022/07/20 14:24:35;;;;;;;11.03;1.40;;;;;;;28.14;34.35;99738.16;1699282;83;21208;-81
2022/07/20 14:27:41;;;;;;;4.15;1.47;;;;;;;28.11;34.89;99737.36;1699837;84;21756;-82
2022/07/20 14:30:46;;;;;;;3.72;1.10;;;;;;;28.03;34.77;99732.69;1699357;83;21227;-81
2022/07/20 14:33:51;;;;;;;3.27;0.90;;;;;;;28.00;35.23;99724.05;1700049;84;21753;-81
2022/07/20 14:36:58;;;;;;;7.87;1.32;;;;;;;27.93;34.86;99725.83;1700446;84;21782;-81